createdAt,value
2018-12-24T00:00:51.143Z,1.90
2018-12-24T00:03:19.494Z,2.10
2018-12-24T00:05:47.868Z,2.07
2018-12-24T00:08:16.231Z,2.03
2018-12-24T00:10:44.600Z,2.20
2018-12-24T00:13:12.973Z,1.90
2018-12-24T00:15:41.332Z,1.90
2018-12-24T00:18:09.707Z,2.00
2018-12-24T00:20:38.053Z,2.13
2018-12-24T00:23:06.407Z,1.80
2018-12-24T00:25:34.873Z,1.70
2018-12-24T00:28:03.291Z,2.50
2018-12-24T00:30:31.628Z,1.80
2018-12-24T00:33:00.026Z,1.70
2018-12-24T00:35:28.423Z,1.90
2018-12-24T00:37:56.763Z,1.83
2018-12-24T00:40:25.256Z,1.83
2018-12-24T00:42:53.604Z,1.77
2018-12-24T00:45:22.019Z,2.10
2018-12-24T00:47:50.371Z,2.10
2018-12-24T00:50:18.771Z,1.90
2018-12-24T00:52:47.158Z,1.80
2018-12-24T00:55:15.506Z,2.00
2018-12-24T00:57:43.884Z,1.80
2018-12-24T01:00:12.269Z,2.00
2018-12-24T01:02:40.609Z,2.00
2018-12-24T01:05:08.947Z,1.87
2018-12-24T01:07:37.324Z,1.70
2018-12-24T01:10:06.179Z,1.80
2018-12-24T01:12:34.547Z,3.50
2018-12-24T01:15:02.900Z,2.07
2018-12-24T01:17:31.256Z,1.80
2018-12-24T01:19:59.619Z,1.87
2018-12-24T01:22:28.061Z,1.73
2018-12-24T01:24:56.419Z,1.60
2018-12-24T01:27:25.015Z,1.80
2018-12-24T01:29:53.391Z,1.70
2018-12-24T01:32:21.785Z,2.00
2018-12-24T01:34:50.171Z,1.80
2018-12-24T01:37:18.613Z,1.80
2018-12-24T01:39:46.975Z,1.70
2018-12-24T01:42:15.313Z,1.67
2018-12-24T01:44:43.762Z,1.60
2018-12-24T01:47:12.240Z,1.90
2018-12-24T01:49:40.671Z,1.80
2018-12-24T01:52:09.033Z,1.90
2018-12-24T01:54:37.368Z,1.77
2018-12-24T01:57:05.792Z,2.00
2018-12-24T01:59:34.229Z,1.80
2018-12-24T02:02:02.575Z,1.90
2018-12-24T02:04:30.922Z,2.00
2018-12-24T02:06:59.327Z,1.80
2018-12-24T02:09:27.643Z,1.80
2018-12-24T02:11:56.081Z,1.83
2018-12-24T02:14:24.631Z,2.17
2018-12-24T02:16:52.937Z,1.80
2018-12-24T02:19:21.322Z,1.83
2018-12-24T02:21:49.767Z,1.90
2018-12-24T02:24:18.194Z,1.93
2018-12-24T02:26:46.588Z,2.13
2018-12-24T02:29:14.931Z,1.90
2018-12-24T02:31:43.294Z,1.90
2018-12-24T02:34:11.727Z,1.90
2018-12-24T02:36:40.122Z,2.00
2018-12-24T02:39:08.498Z,1.60
2018-12-24T02:41:36.845Z,1.60
2018-12-24T02:44:05.184Z,1.60
2018-12-24T02:46:33.623Z,1.60
2018-12-24T02:49:02.134Z,1.70
2018-12-24T02:51:30.478Z,1.77
2018-12-24T02:53:58.830Z,1.80
2018-12-24T02:56:27.306Z,1.80
2018-12-24T02:58:55.736Z,1.60
2018-12-24T03:01:24.179Z,1.80
2018-12-24T03:03:52.594Z,1.80
2018-12-24T03:06:20.945Z,1.80
2018-12-24T03:08:49.288Z,1.70
2018-12-24T03:11:17.645Z,1.90
2018-12-24T03:13:46.015Z,1.80
2018-12-24T03:16:14.397Z,1.73
2018-12-24T03:18:42.809Z,1.70
2018-12-24T03:21:11.142Z,1.83
2018-12-24T03:23:39.477Z,1.70
2018-12-24T03:26:07.865Z,1.90
2018-12-24T03:28:36.355Z,2.00
2018-12-24T03:31:04.645Z,1.80
2018-12-24T03:33:33.027Z,1.83
2018-12-24T03:36:01.393Z,1.80
2018-12-24T03:38:29.746Z,2.00
2018-12-24T03:40:58.100Z,1.80
2018-12-24T03:43:26.544Z,1.87
2018-12-24T03:45:54.908Z,1.90
2018-12-24T03:48:23.264Z,1.90
2018-12-24T03:50:51.628Z,2.10
2018-12-24T03:53:19.975Z,1.77
2018-12-24T03:55:48.396Z,1.80
2018-12-24T03:58:16.758Z,1.70
2018-12-24T04:00:45.129Z,1.87
2018-12-24T04:03:13.469Z,1.80
2018-12-24T04:05:41.838Z,1.70
2018-12-24T04:08:10.190Z,1.80
2018-12-24T04:10:38.631Z,1.73
2018-12-24T04:13:07.107Z,1.80
2018-12-24T04:15:35.606Z,1.93
2018-12-24T04:18:04.084Z,1.90
2018-12-24T04:20:32.431Z,2.00
2018-12-24T04:23:00.812Z,1.90
2018-12-24T04:25:29.247Z,2.00
2018-12-24T04:27:57.603Z,1.90
2018-12-24T04:30:25.984Z,2.00
2018-12-24T04:32:54.342Z,1.77
2018-12-24T04:35:22.755Z,2.03
2018-12-24T04:37:51.170Z,1.80
2018-12-24T04:40:19.527Z,2.20
2018-12-24T04:42:47.866Z,1.90
2018-12-24T04:45:16.208Z,1.93
2018-12-24T04:47:44.544Z,2.10
2018-12-24T04:50:12.937Z,2.00
2018-12-24T04:52:41.273Z,2.00
2018-12-24T04:55:09.676Z,1.90
2018-12-24T04:57:38.056Z,2.10
2018-12-24T05:00:07.141Z,1.90
2018-12-24T05:02:35.506Z,2.00
2018-12-24T05:05:03.908Z,2.00
2018-12-24T05:07:32.252Z,1.90
2018-12-24T05:10:00.607Z,1.87
2018-12-24T05:12:28.963Z,2.10
2018-12-24T05:14:57.318Z,2.00
2018-12-24T05:17:25.682Z,2.10
2018-12-24T05:19:54.020Z,2.20
2018-12-24T05:22:22.376Z,2.20
2018-12-24T05:24:50.740Z,1.90
2018-12-24T05:27:19.116Z,2.10
2018-12-24T05:29:47.450Z,2.37
2018-12-24T05:32:15.815Z,2.10
2018-12-24T05:34:44.168Z,2.40
2018-12-24T05:37:12.510Z,2.30
2018-12-24T05:39:40.892Z,2.10
2018-12-24T05:42:09.258Z,2.00
2018-12-24T05:44:37.655Z,2.10
2018-12-24T05:47:06.081Z,2.20
2018-12-24T05:49:34.431Z,2.20
2018-12-24T05:52:02.891Z,2.10
2018-12-24T05:54:31.262Z,2.17
2018-12-24T05:56:59.646Z,2.00
2018-12-24T05:59:28.004Z,2.13
2018-12-24T06:01:56.418Z,2.30
2018-12-24T06:04:24.850Z,2.00
2018-12-24T06:06:53.191Z,2.30
2018-12-24T06:09:22.394Z,2.10
2018-12-24T06:11:50.878Z,2.20
2018-12-24T06:14:19.260Z,4.03
2018-12-24T06:16:47.637Z,2.73
2018-12-24T06:19:18.987Z,2.23
2018-12-24T06:21:47.463Z,2.10
2018-12-24T06:24:15.820Z,2.20
2018-12-24T06:26:44.171Z,2.10
2018-12-24T06:29:12.513Z,2.20
2018-12-24T06:31:40.853Z,2.10
2018-12-24T06:34:09.299Z,2.30
2018-12-24T06:36:37.671Z,2.30
2018-12-24T06:39:07.381Z,2.20
2018-12-24T06:41:35.686Z,2.20
2018-12-24T06:44:06.879Z,2.20
2018-12-24T06:46:34.099Z,2.20
2018-12-24T06:49:02.458Z,2.30
2018-12-24T06:51:30.887Z,2.20
2018-12-24T06:53:59.245Z,2.20
2018-12-24T06:56:27.635Z,2.40
2018-12-24T06:58:56.019Z,2.40
2018-12-24T07:01:24.451Z,2.53
2018-12-24T07:03:52.871Z,2.80
2018-12-24T07:06:21.218Z,2.30
2018-12-24T07:08:49.586Z,3.00
2018-12-24T07:11:17.930Z,2.70
2018-12-24T07:13:46.420Z,3.00
2018-12-24T07:16:14.834Z,2.50
2018-12-24T07:18:43.184Z,2.50
2018-12-24T07:21:11.598Z,2.50
2018-12-24T07:23:40.021Z,4.60
2018-12-24T07:26:09.098Z,2.63
2018-12-24T07:28:37.568Z,2.50
2018-12-24T07:31:05.941Z,3.30
2018-12-24T07:33:34.273Z,2.60
2018-12-24T07:36:02.643Z,2.80
2018-12-24T07:38:31.074Z,2.60
2018-12-24T07:40:59.439Z,2.40
2018-12-24T07:43:27.806Z,2.90
2018-12-24T07:45:56.144Z,2.70
2018-12-24T07:48:24.576Z,2.50
2018-12-24T07:50:52.983Z,2.67
2018-12-24T07:53:21.361Z,2.60
2018-12-24T07:55:49.693Z,2.87
2018-12-24T07:58:18.106Z,2.67
2018-12-24T08:00:46.462Z,2.30
2018-12-24T08:03:14.901Z,2.23
2018-12-24T08:05:43.291Z,2.80
2018-12-24T08:08:11.736Z,2.60
2018-12-24T08:10:40.145Z,2.97
2018-12-24T08:13:08.563Z,2.73
2018-12-24T08:15:36.936Z,2.80
2018-12-24T08:18:05.309Z,2.47
2018-12-24T08:20:33.699Z,2.87
2018-12-24T08:23:02.105Z,2.83
2018-12-24T08:25:30.491Z,2.70
2018-12-24T08:28:00.539Z,2.70
2018-12-24T08:30:28.910Z,3.00
2018-12-24T08:32:57.344Z,3.00
2018-12-24T08:35:25.695Z,2.87
2018-12-24T08:37:54.082Z,3.20
2018-12-24T08:40:22.649Z,3.10
2018-12-24T08:42:50.984Z,3.23
2018-12-24T08:45:19.477Z,3.17
2018-12-24T08:47:47.862Z,3.30
2018-12-24T08:50:18.857Z,3.10
2018-12-24T08:52:47.208Z,3.13
2018-12-24T08:55:15.617Z,3.10
2018-12-24T08:57:43.965Z,2.70
2018-12-24T09:00:12.311Z,3.13
2018-12-24T09:02:40.656Z,2.70
2018-12-24T09:05:09.073Z,2.80
2018-12-24T09:07:37.463Z,3.00
2018-12-24T09:10:18.284Z,3.10
2018-12-24T09:12:46.653Z,3.00
2018-12-24T09:15:14.991Z,2.77
2018-12-24T09:17:43.340Z,2.90
2018-12-24T09:20:11.710Z,3.20
2018-12-24T09:22:40.042Z,3.97
2018-12-24T09:25:08.390Z,3.53
2018-12-24T09:27:36.726Z,5.87
2018-12-24T09:30:08.709Z,3.30
2018-12-24T09:32:37.085Z,3.50
2018-12-24T09:35:05.420Z,2.90
2018-12-24T09:37:33.766Z,3.00
2018-12-24T09:40:02.110Z,2.90
2018-12-24T09:42:30.454Z,3.00
2018-12-24T09:44:59.290Z,2.90
2018-12-24T09:47:27.656Z,3.80
2018-12-24T09:49:56.007Z,3.17
2018-12-24T09:52:24.358Z,2.93
2018-12-24T09:54:52.686Z,3.00
2018-12-24T09:57:21.050Z,3.03
2018-12-24T09:59:49.397Z,2.80
2018-12-24T10:02:17.915Z,3.17
2018-12-24T10:04:46.323Z,3.40
2018-12-24T10:07:28.413Z,3.20
2018-12-24T10:09:56.779Z,3.40
2018-12-24T10:12:25.122Z,3.87
2018-12-24T10:14:53.465Z,3.30
2018-12-24T10:17:21.813Z,3.97
2018-12-24T10:19:50.163Z,2.90
2018-12-24T10:22:18.575Z,3.73
2018-12-24T10:24:46.925Z,2.97
2018-12-24T10:27:15.263Z,2.63
2018-12-24T10:29:43.600Z,2.90
2018-12-24T10:32:11.945Z,3.33
2018-12-24T10:34:40.322Z,3.00
2018-12-24T10:37:08.690Z,3.00
2018-12-24T10:39:37.028Z,6.43
2018-12-24T10:42:05.373Z,5.07
2018-12-24T10:44:33.719Z,3.00
2018-12-24T10:47:02.081Z,3.00
2018-12-24T10:49:30.418Z,3.20
2018-12-24T10:51:58.758Z,4.40
2018-12-24T10:54:27.096Z,4.07
2018-12-24T10:56:55.458Z,4.07
2018-12-24T10:59:23.828Z,4.20
2018-12-24T11:01:52.160Z,3.10
2018-12-24T11:04:20.504Z,2.83
2018-12-24T11:06:48.868Z,3.00
2018-12-24T11:09:17.206Z,3.40
2018-12-24T11:11:45.574Z,3.03
2018-12-24T11:14:13.937Z,4.50
2018-12-24T11:16:42.272Z,3.37
2018-12-24T11:19:10.632Z,3.07
2018-12-24T11:21:38.973Z,3.00
2018-12-24T11:24:07.307Z,3.30
2018-12-24T11:26:41.415Z,3.20
2018-12-24T11:29:09.758Z,4.47
2018-12-24T11:31:38.125Z,4.37
2018-12-24T11:34:06.493Z,3.07
2018-12-24T11:36:34.798Z,2.93
2018-12-24T11:39:03.803Z,3.07
2018-12-24T11:41:32.151Z,3.60
2018-12-24T11:44:00.515Z,2.93
2018-12-24T11:46:28.887Z,3.00
2018-12-24T11:48:57.221Z,2.63
2018-12-24T11:51:25.557Z,2.60
2018-12-24T11:53:53.909Z,2.77
2018-12-24T11:56:22.242Z,2.77
2018-12-24T11:58:50.610Z,3.00
2018-12-24T12:01:18.952Z,2.80
2018-12-24T12:03:47.298Z,2.80
2018-12-24T12:06:19.659Z,3.60
2018-12-24T12:08:45.737Z,2.90
2018-12-24T12:11:14.099Z,4.80
2018-12-24T12:13:42.438Z,3.63
2018-12-24T12:16:10.775Z,4.03
2018-12-24T12:18:39.143Z,4.30
2018-12-24T12:21:07.484Z,3.40
2018-12-24T12:23:35.815Z,3.47
2018-12-24T12:26:04.169Z,2.97
2018-12-24T12:28:32.515Z,2.83
2018-12-24T12:31:02.831Z,4.43
2018-12-24T12:33:31.181Z,5.80
2018-12-24T12:35:59.512Z,4.20
2018-12-24T12:38:29.877Z,4.30
2018-12-24T12:40:57.956Z,4.43
2018-12-24T12:43:26.298Z,4.30
2018-12-24T12:45:54.655Z,8.47
2018-12-24T12:48:23.005Z,17.40
2018-12-24T12:50:51.386Z,10.87
2018-12-24T12:53:19.759Z,11.10
2018-12-24T12:55:48.097Z,9.53
2018-12-24T12:58:16.443Z,13.17
2018-12-24T13:00:44.812Z,18.27
2018-12-24T13:03:13.146Z,8.90
2018-12-24T13:05:41.514Z,4.80
2018-12-24T13:08:09.858Z,4.53
2018-12-24T13:10:38.186Z,5.57
2018-12-24T13:13:06.557Z,4.27
2018-12-24T13:15:34.890Z,5.83
2018-12-24T13:18:03.269Z,5.40
2018-12-24T13:20:31.603Z,4.40
2018-12-24T13:22:59.934Z,5.07
2018-12-24T13:25:28.303Z,4.73
2018-12-24T13:27:56.644Z,5.07
2018-12-24T13:30:24.981Z,4.57
2018-12-24T13:32:53.346Z,6.27
2018-12-24T13:35:21.686Z,4.90
2018-12-24T13:37:50.044Z,5.60
2018-12-24T13:40:18.384Z,5.90
2018-12-24T13:42:46.727Z,5.30
2018-12-24T13:45:15.092Z,6.00
2018-12-24T13:48:25.234Z,5.23
2018-12-24T13:50:53.482Z,5.43
2018-12-24T13:53:21.716Z,4.97
2018-12-24T13:55:49.955Z,4.53
2018-12-24T13:58:18.222Z,4.43
2018-12-24T14:00:46.458Z,3.80
2018-12-24T14:03:14.694Z,4.00
2018-12-24T14:05:42.938Z,4.10
2018-12-24T14:08:11.178Z,4.00
2018-12-24T14:10:39.441Z,4.90
2018-12-24T14:13:07.679Z,4.00
2018-12-24T14:15:35.925Z,3.67
2018-12-24T14:18:04.157Z,4.30
2018-12-24T14:20:32.391Z,3.33
2018-12-24T14:23:00.660Z,3.53
2018-12-24T14:25:28.891Z,4.20
2018-12-24T14:27:57.128Z,3.90
2018-12-24T14:30:25.370Z,3.60
2018-12-24T14:32:53.607Z,3.93
2018-12-24T14:35:21.882Z,4.50
2018-12-24T14:37:50.113Z,5.00
2018-12-24T14:40:18.348Z,5.37
2018-12-24T14:42:46.593Z,5.17
2018-12-24T14:45:14.827Z,4.83
2018-12-24T14:47:44.901Z,4.60
2018-12-24T14:50:13.066Z,4.43
2018-12-24T14:52:41.297Z,4.33
2018-12-24T14:55:09.541Z,4.67
2018-12-24T14:57:37.776Z,5.80
2018-12-24T15:00:07.550Z,5.77
2018-12-24T15:02:35.787Z,5.10
2018-12-24T15:05:04.017Z,5.43
2018-12-24T15:07:32.260Z,6.00
2018-12-24T15:10:00.500Z,5.90
2018-12-24T15:12:28.763Z,5.70
2018-12-24T15:14:57.003Z,5.50
2018-12-24T15:17:25.232Z,5.30
2018-12-24T15:19:53.468Z,5.60
2018-12-24T15:22:21.707Z,6.30
2018-12-24T15:24:49.952Z,6.57
2018-12-24T15:27:18.196Z,7.03
2018-12-24T15:29:46.463Z,6.47
2018-12-24T15:32:14.695Z,6.70
2018-12-24T15:34:42.936Z,5.50
2018-12-24T15:37:11.169Z,5.40
2018-12-24T15:39:39.404Z,5.70
2018-12-24T15:42:07.667Z,6.10
2018-12-24T15:44:35.903Z,6.03
2018-12-24T15:47:04.157Z,7.53
2018-12-24T15:49:32.408Z,6.53
2018-12-24T15:52:00.649Z,6.57
2018-12-24T15:54:28.897Z,7.10
2018-12-24T15:56:57.132Z,6.40
2018-12-24T15:59:25.451Z,7.13
2018-12-24T16:01:53.655Z,7.87
2018-12-24T16:04:21.891Z,6.10
2018-12-24T16:06:50.155Z,6.30
2018-12-24T16:09:18.391Z,6.93
2018-12-24T16:11:46.654Z,6.83
2018-12-24T16:14:14.898Z,7.77
2018-12-24T16:16:50.792Z,8.40
2018-12-24T16:19:13.092Z,8.33
2018-12-24T16:21:41.342Z,7.03
2018-12-24T16:24:09.607Z,5.57
2018-12-24T16:26:37.858Z,8.20
2018-12-24T16:29:06.106Z,9.10
2018-12-24T16:31:34.360Z,9.47
2018-12-24T16:34:02.601Z,8.83
2018-12-24T16:36:30.838Z,9.20
2018-12-24T16:38:59.075Z,7.63
2018-12-24T16:41:27.340Z,8.90
2018-12-24T16:43:55.581Z,10.13
2018-12-24T16:46:23.868Z,8.30
2018-12-24T16:48:52.093Z,10.70
2018-12-24T16:51:20.335Z,8.60
2018-12-24T16:53:48.585Z,8.37
2018-12-24T16:56:16.813Z,7.80
2018-12-24T16:58:45.059Z,7.57
2018-12-24T17:01:13.340Z,9.03
2018-12-24T17:03:41.602Z,8.23
2018-12-24T17:06:09.878Z,7.10
2018-12-24T17:08:38.111Z,6.90
2018-12-24T17:11:06.350Z,7.53
2018-12-24T17:13:34.598Z,8.53
2018-12-24T17:16:02.859Z,8.30
2018-12-24T17:18:31.099Z,10.20
2018-12-24T17:20:59.352Z,9.07
2018-12-24T17:23:27.593Z,10.70
2018-12-24T17:25:55.848Z,12.20
2018-12-24T17:28:24.123Z,10.23
2018-12-24T17:30:52.357Z,6.40
2018-12-24T17:33:20.605Z,7.43
2018-12-24T17:35:48.840Z,7.07
2018-12-24T17:38:17.090Z,9.20
2018-12-24T17:40:45.392Z,8.40
2018-12-24T17:43:13.650Z,6.70
2018-12-24T17:45:41.894Z,6.73
2018-12-24T17:48:10.126Z,7.27
2018-12-24T17:50:38.363Z,7.67
2018-12-24T17:53:06.620Z,6.93
2018-12-24T17:55:34.870Z,6.37
2018-12-24T17:58:03.102Z,6.63
2018-12-24T18:00:31.344Z,6.00
2018-12-24T18:02:59.578Z,7.00
2018-12-24T18:05:27.823Z,8.40
2018-12-24T18:07:56.083Z,10.53
2018-12-24T18:10:24.319Z,10.67
2018-12-24T18:12:52.597Z,9.50
2018-12-24T18:15:20.910Z,9.63
2018-12-24T18:17:49.149Z,8.63
2018-12-24T18:20:17.395Z,7.83
2018-12-24T18:22:45.628Z,7.83
2018-12-24T18:25:13.902Z,7.20
2018-12-24T18:27:42.136Z,7.10
2018-12-24T18:30:10.372Z,8.30
2018-12-24T18:32:38.615Z,7.90
2018-12-24T18:35:06.854Z,7.27
2018-12-24T18:37:35.101Z,9.67
2018-12-24T18:40:03.346Z,8.33
2018-12-24T18:42:31.600Z,7.40
2018-12-24T18:44:59.859Z,8.00
2018-12-24T18:47:33.136Z,8.50
2018-12-24T18:49:58.076Z,10.50
2018-12-24T18:52:26.330Z,10.40
2018-12-24T18:54:54.569Z,11.67
2018-12-24T18:57:22.835Z,11.40
2018-12-24T18:59:51.083Z,10.50
2018-12-24T19:02:19.332Z,10.83
2018-12-24T19:04:47.602Z,10.50
2018-12-24T19:07:15.852Z,10.20
2018-12-24T19:09:44.101Z,10.70
2018-12-24T19:12:12.344Z,9.30
2018-12-24T19:14:40.588Z,9.90
2018-12-24T19:17:08.862Z,9.77
2018-12-24T19:19:37.102Z,9.70
2018-12-24T19:22:05.351Z,10.10
2018-12-24T19:24:33.599Z,9.60
2018-12-24T19:27:01.909Z,9.40
2018-12-24T19:29:30.185Z,10.97
2018-12-24T19:31:58.429Z,9.63
2018-12-24T19:34:26.750Z,10.37
2018-12-24T19:36:55.020Z,9.83
2018-12-24T19:39:23.265Z,10.40
2018-12-24T19:41:51.508Z,9.47
2018-12-24T19:44:19.777Z,11.00
2018-12-24T19:46:48.022Z,12.00
2018-12-24T19:49:16.308Z,12.33
2018-12-24T19:51:44.552Z,12.50
2018-12-24T19:54:12.891Z,12.67
2018-12-24T19:56:41.145Z,13.17
2018-12-24T19:59:09.478Z,12.40
2018-12-24T20:01:37.847Z,13.00
2018-12-24T20:04:06.145Z,13.63
2018-12-24T20:06:34.414Z,12.60
2018-12-24T20:09:02.878Z,11.90
2018-12-24T20:11:31.260Z,11.97
2018-12-24T20:13:59.512Z,12.27
2018-12-24T20:16:27.835Z,13.70
2018-12-24T20:18:56.079Z,13.30
2018-12-24T20:21:24.330Z,12.23
2018-12-24T20:23:52.596Z,11.83
2018-12-24T20:26:20.836Z,12.77
2018-12-24T20:28:49.085Z,11.60
2018-12-24T20:31:17.334Z,12.53
2018-12-24T20:33:45.574Z,13.97
2018-12-24T20:36:13.854Z,13.50
2018-12-24T20:38:42.113Z,13.97
2018-12-24T20:41:10.366Z,13.20
2018-12-24T20:43:38.656Z,11.70
2018-12-24T20:46:06.889Z,11.63
2018-12-24T20:48:35.187Z,12.27
2018-12-24T20:51:03.424Z,11.57
2018-12-24T20:53:31.680Z,12.13
2018-12-24T20:55:59.926Z,12.03
2018-12-24T20:58:28.200Z,12.03
2018-12-24T21:00:56.548Z,11.53
2018-12-24T21:03:24.792Z,10.83
2018-12-24T21:05:53.155Z,11.57
2018-12-24T21:08:21.704Z,11.20
2018-12-24T21:10:50.219Z,10.97
2018-12-24T21:13:18.533Z,11.20
2018-12-24T21:15:46.866Z,10.47
2018-12-24T21:18:15.372Z,10.67
2018-12-24T21:20:43.650Z,11.57
2018-12-24T21:23:11.916Z,12.47
2018-12-24T21:25:40.183Z,11.63
2018-12-24T21:28:08.546Z,13.20
2018-12-24T21:30:36.832Z,13.13
2018-12-24T21:33:05.172Z,13.50
2018-12-24T21:35:36.555Z,13.43
2018-12-24T21:38:04.795Z,17.87
2018-12-24T21:40:34.784Z,15.53
2018-12-24T21:43:03.049Z,14.50
2018-12-24T21:45:31.373Z,13.70
2018-12-24T21:47:59.735Z,13.03
2018-12-24T21:50:29.635Z,12.77
2018-12-24T21:52:57.941Z,13.53
2018-12-24T21:55:26.229Z,13.70
2018-12-24T21:57:54.537Z,14.80
2018-12-24T22:00:22.857Z,13.67
2018-12-24T22:02:51.166Z,14.93
2018-12-24T22:05:19.414Z,14.50
2018-12-24T22:07:47.771Z,15.03
2018-12-24T22:10:16.084Z,15.30
2018-12-24T22:12:44.371Z,16.13
2018-12-24T22:15:12.696Z,16.50
2018-12-24T22:17:41.016Z,16.93
2018-12-24T22:20:09.369Z,17.73
2018-12-24T22:22:37.637Z,16.60
2018-12-24T22:25:05.928Z,17.20
2018-12-24T22:27:35.933Z,16.57
2018-12-24T22:30:04.571Z,17.60
2018-12-24T22:32:32.838Z,19.47
2018-12-24T22:35:01.131Z,19.73
2018-12-24T22:37:29.477Z,19.47
2018-12-24T22:39:57.805Z,20.03
2018-12-24T22:42:26.169Z,19.50
2018-12-24T22:44:54.471Z,20.10
2018-12-24T22:47:22.767Z,21.27
2018-12-24T22:49:51.117Z,19.80
2018-12-24T22:52:19.427Z,18.70
2018-12-24T22:54:47.837Z,20.03
2018-12-24T22:57:16.186Z,19.73
2018-12-24T22:59:44.575Z,19.33
2018-12-24T23:02:12.910Z,18.17
2018-12-24T23:04:41.325Z,18.77
2018-12-24T23:07:09.570Z,19.17
2018-12-24T23:09:37.849Z,18.73
2018-12-24T23:12:06.139Z,18.80
2018-12-24T23:14:34.417Z,18.50
2018-12-24T23:17:02.771Z,19.13
2018-12-24T23:19:30.996Z,18.47
2018-12-24T23:21:59.364Z,19.10
2018-12-24T23:24:27.648Z,17.00
2018-12-24T23:26:55.881Z,15.70
2018-12-24T23:29:24.142Z,16.43
2018-12-24T23:31:52.415Z,15.73
2018-12-24T23:34:20.686Z,15.00
2018-12-24T23:36:48.953Z,14.03
2018-12-24T23:39:17.239Z,14.73
2018-12-24T23:41:46.578Z,13.57
2018-12-24T23:44:14.881Z,14.23
2018-12-24T23:46:43.224Z,14.07
2018-12-24T23:49:11.473Z,17.63
2018-12-24T23:51:39.800Z,15.30
2018-12-24T23:54:09.331Z,13.80
2018-12-24T23:56:37.682Z,13.07
2018-12-24T23:59:05.991Z,13.17
